Time;durP1;ratioP1;P1;durP2;ratioP2;P2;SDS_P1;SDS_P2;PMS_P1;PMS_P2;Temp;Humidity;BMP_temperature;BMP_pressure;BME280_temperature;BME280_humidity;BME280_pressure;Samples;Min_cycle;Max_cycle;Signal;HPM_P1;HPM_P2
2022/01/14 00:00:44;;;;;;;9.67;6.07;;;4.70;99.90;;;;;;5024557;28;20187;-66
2022/01/14 00:03:11;;;;;;;9.70;5.70;;;4.70;99.90;;;;;;5022354;28;20507;-65
2022/01/14 00:05:37;;;;;;;13.53;5.90;;;4.70;99.90;;;;;;5023117;28;20260;-64
2022/01/14 00:08:02;;;;;;;10.93;6.10;;;4.70;99.90;;;;;;5019686;28;20292;-62
2022/01/14 00:10:30;;;;;;;13.33;6.63;;;4.80;99.90;;;;;;5020589;28;20193;-62
2022/01/14 00:13:05;;;;;;;9.03;6.20;;;4.70;99.90;;;;;;5023187;28;20628;-66
2022/01/14 00:15:34;;;;;;;9.20;6.27;;;4.70;99.90;;;;;;5022474;28;20193;-63
2022/01/14 00:18:01;;;;;;;8.87;6.00;;;4.70;99.90;;;;;;5022344;28;20545;-63
2022/01/14 00:20:27;;;;;;;9.03;4.50;;;4.70;99.90;;;;;;5022291;28;20189;-64
2022/01/14 00:22:53;;;;;;;10.23;5.83;;;4.70;99.90;;;;;;5019675;28;20308;-65
2022/01/14 00:33:29;;;;;;;8.70;5.03;;;4.60;99.90;;;;;;5022843;28;20187;-63
2022/01/14 00:35:54;;;;;;;10.87;6.17;;;4.50;99.90;;;;;;5021529;28;20585;-63
2022/01/14 00:38:20;;;;;;;7.83;4.07;;;4.50;99.90;;;;;;5020833;28;20182;-63
2022/01/14 00:40:46;;;;;;;11.67;6.87;;;4.50;99.90;;;;;;5018961;28;20201;-62
2022/01/14 00:43:12;;;;;;;12.10;6.33;;;4.40;99.90;;;;;;5020456;28;20183;-68
2022/01/14 00:45:39;;;;;;;13.47;6.83;;;4.30;99.90;;;;;;5027855;28;20248;-65
2022/01/14 00:48:05;;;;;;;10.13;6.00;;;4.30;99.90;;;;;;5030965;28;20210;-63
2022/01/14 00:50:33;;;;;;;11.93;6.97;;;4.30;99.90;;;;;;5028299;28;20198;-63
2022/01/14 00:52:59;;;;;;;9.43;5.93;;;4.20;99.90;;;;;;5024795;28;20175;-64
2022/01/14 00:55:40;;;;;;;7.73;4.90;;;4.10;99.90;;;;;;5020956;28;20193;-63
2022/01/14 01:00:50;;;;;;;11.20;7.00;;;4.00;99.90;;;;;;5017286;28;22680;-63
2022/01/14 01:03:15;;;;;;;11.43;6.27;;;4.10;99.90;;;;;;5019890;28;20177;-63
2022/01/14 01:05:41;;;;;;;12.63;6.77;;;4.00;99.90;;;;;;5021308;28;20221;-62
2022/01/14 01:08:11;;;;;;;9.00;5.00;;;4.00;99.90;;;;;;5020198;28;20261;-63
2022/01/14 01:10:46;;;;;;;11.37;7.07;;;3.90;99.90;;;;;;5030476;28;20177;-63
2022/01/14 01:13:20;;;;;;;9.20;5.73;;;3.80;99.90;;;;;;5027915;28;20180;-63
2022/01/14 01:15:45;;;;;;;12.60;6.47;;;3.90;99.90;;;;;;5021259;28;20231;-61
2022/01/14 01:18:11;;;;;;;11.47;6.73;;;3.80;99.90;;;;;;5021218;28;20194;-68
2022/01/14 01:20:37;;;;;;;11.03;6.53;;;3.80;99.90;;;;;;5018675;28;20586;-63
2022/01/14 01:23:04;;;;;;;8.93;5.73;;;3.80;99.90;;;;;;5020295;28;20318;-62
2022/01/14 01:25:38;;;;;;;12.27;6.67;;;3.80;99.90;;;;;;5024961;28;20641;-63
2022/01/14 01:28:04;;;;;;;11.07;6.30;;;3.80;99.90;;;;;;5020207;28;20324;-63
2022/01/14 01:32:56;;;;;;;14.97;7.13;;;3.60;99.90;;;;;;5020193;28;20197;-63
2022/01/14 01:35:21;;;;;;;12.47;6.37;;;3.70;99.90;;;;;;5019321;28;20234;-62
2022/01/14 01:37:47;;;;;;;13.37;6.67;;;3.60;99.90;;;;;;5019698;28;20212;-67
2022/01/14 01:40:14;;;;;;;13.13;7.23;;;3.60;99.90;;;;;;5017989;28;20275;-64
2022/01/14 01:42:43;;;;;;;13.87;7.33;;;3.60;99.90;;;;;;5025406;28;20187;-64
2022/01/14 01:45:11;;;;;;;13.27;7.37;;;3.60;99.90;;;;;;5026002;28;20328;-67
2022/01/14 01:47:38;;;;;;;10.13;5.23;;;3.60;99.90;;;;;;5030188;28;20909;-63
2022/01/14 01:50:21;;;;;;;11.50;6.83;;;3.60;99.90;;;;;;5031302;28;20181;-63
2022/01/14 01:52:48;;;;;;;17.10;7.37;;;3.60;99.90;;;;;;5028458;28;20185;-63
2022/01/14 01:55:15;;;;;;;10.23;6.93;;;3.50;99.90;;;;;;5019483;28;20177;-63
2022/01/14 01:57:42;;;;;;;12.40;7.13;;;3.50;99.90;;;;;;5021298;28;20219;-65
2022/01/14 02:00:13;;;;;;;12.80;6.97;;;3.50;99.90;;;;;;5021407;28;20483;-65
2022/01/14 02:02:39;;;;;;;15.70;7.00;;;3.40;99.90;;;;;;5017940;28;20276;-66
2022/01/14 02:05:05;;;;;;;10.17;6.23;;;3.40;99.90;;;;;;5019836;28;20270;-62
2022/01/14 02:07:32;;;;;;;10.10;6.80;;;3.40;99.90;;;;;;5019071;28;20234;-63
2022/01/14 02:09:59;;;;;;;11.70;7.40;;;3.40;99.90;;;;;;5024255;28;20190;-66
2022/01/14 02:12:26;;;;;;;10.23;6.80;;;3.40;99.90;;;;;;5025395;28;20206;-63
2022/01/14 02:15:08;;;;;;;9.50;6.17;;;3.40;99.90;;;;;;5024736;28;20177;-64
2022/01/14 02:17:51;;;;;;;12.27;7.37;;;3.30;99.90;;;;;;5022803;28;20189;-64
2022/01/14 02:23:05;;;;;;;12.73;7.30;;;3.30;99.90;;;;;;5022510;28;20266;-63
2022/01/14 02:25:31;;;;;;;14.40;7.53;;;3.40;99.90;;;;;;5026203;28;20555;-67
2022/01/14 02:28:05;;;;;;;15.00;7.80;;;3.40;99.90;;;;;;5024637;28;20209;-63
2022/01/14 02:30:33;;;;;;;11.10;7.07;;;3.50;99.90;;;;;;5023829;28;20209;-63
2022/01/14 02:32:59;;;;;;;13.40;8.07;;;3.50;99.90;;;;;;5020270;28;20173;-65
2022/01/14 02:35:25;;;;;;;13.50;8.13;;;3.50;99.90;;;;;;5021425;28;20245;-62
2022/01/14 02:37:52;;;;;;;12.47;7.40;;;3.50;99.90;;;;;;5022292;28;20190;-64
2022/01/14 02:40:18;;;;;;;13.30;8.40;;;3.60;99.90;;;;;;5023172;28;20538;-62
2022/01/14 02:42:47;;;;;;;16.17;8.27;;;3.60;99.90;;;;;;5024889;28;20684;-64
2022/01/14 02:45:13;;;;;;;15.07;8.53;;;3.60;99.90;;;;;;5022840;28;20189;-64
2022/01/14 02:47:38;;;;;;;17.40;8.73;;;3.60;99.90;;;;;;5022588;28;20201;-65
2022/01/14 02:50:08;;;;;;;17.07;9.90;;;3.50;99.90;;;;;;5023342;28;20193;-64
2022/01/14 02:55:27;;;;;;;14.87;9.13;;;3.50;99.90;;;;;;5019989;28;20186;-63
2022/01/14 02:57:54;;;;;;;15.97;9.03;;;3.60;99.90;;;;;;5020461;28;20234;-63
2022/01/14 03:00:26;;;;;;;14.00;8.60;;;3.50;99.90;;;;;;5024414;28;20189;-63
2022/01/14 03:02:52;;;;;;;17.93;9.47;;;3.50;99.90;;;;;;5021726;28;20181;-64
2022/01/14 03:05:21;;;;;;;18.00;9.57;;;3.50;99.90;;;;;;5025634;28;20201;-63
2022/01/14 03:07:47;;;;;;;16.83;9.83;;;3.50;99.90;;;;;;5020648;28;20263;-62
2022/01/14 03:10:17;;;;;;;19.63;9.70;;;3.50;99.90;;;;;;5023011;28;20182;-62
2022/01/14 03:12:43;;;;;;;19.37;10.40;;;3.50;99.90;;;;;;5020127;28;20208;-64
2022/01/14 03:15:11;;;;;;;15.80;9.30;;;3.50;99.90;;;;;;5021027;28;20668;-62
2022/01/14 03:17:37;;;;;;;16.70;10.10;;;3.50;99.90;;;;;;5021012;28;20633;-66
2022/01/14 03:20:04;;;;;;;18.70;9.87;;;3.60;99.90;;;;;;5022561;28;20193;-63
2022/01/14 03:22:36;;;;;;;19.73;9.73;;;3.50;99.90;;;;;;5020292;28;20286;-63
2022/01/14 03:27:52;;;;;;;18.10;9.93;;;3.50;99.90;;;;;;5020065;28;20232;-70
2022/01/14 03:30:18;;;;;;;20.13;10.80;;;3.50;99.90;;;;;;5021713;28;20191;-63
2022/01/14 03:32:44;;;;;;;21.80;9.80;;;3.50;99.90;;;;;;5019762;28;20185;-66
2022/01/14 03:35:11;;;;;;;20.03;10.83;;;3.50;99.90;;;;;;5019706;28;20222;-63
2022/01/14 03:37:37;;;;;;;24.00;11.33;;;3.50;99.90;;;;;;5023906;28;20242;-63
2022/01/14 03:40:05;;;;;;;20.20;11.03;;;3.50;99.90;;;;;;5023003;28;20185;-62
2022/01/14 03:42:31;;;;;;;19.03;10.47;;;3.50;99.90;;;;;;5019593;28;20196;-64
2022/01/14 03:44:56;;;;;;;17.33;10.13;;;3.50;99.90;;;;;;5019991;28;20186;-66
2022/01/14 03:47:22;;;;;;;24.23;11.47;;;3.50;99.90;;;;;;5020522;28;20226;-62
2022/01/14 03:49:48;;;;;;;20.30;11.20;;;3.50;99.90;;;;;;5021758;28;20192;-62
2022/01/14 03:52:14;;;;;;;20.50;10.97;;;3.50;99.90;;;;;;5020724;28;20199;-63
2022/01/14 03:54:40;;;;;;;18.67;10.77;;;3.50;99.90;;;;;;5021294;28;20240;-62
2022/01/14 03:57:06;;;;;;;20.83;11.50;;;3.50;99.90;;;;;;5029737;28;20633;-64
2022/01/14 03:59:32;;;;;;;20.20;11.30;;;3.50;99.90;;;;;;5023824;28;20650;-62
2022/01/14 04:01:57;;;;;;;16.43;9.57;;;3.50;99.90;;;;;;5023499;28;20174;-65
2022/01/14 04:04:23;;;;;;;18.73;9.40;;;3.60;99.90;;;;;;5019838;28;20189;-64
2022/01/14 04:06:49;;;;;;;18.00;10.03;;;3.40;99.90;;;;;;5023723;28;20180;-64
2022/01/14 04:09:15;;;;;;;20.10;10.67;;;3.50;99.90;;;;;;5018361;28;20294;-64
2022/01/14 04:11:44;;;;;;;13.70;7.40;;;3.40;99.90;;;;;;5025879;28;20192;-63
2022/01/14 04:16:50;;;;;;;17.57;10.17;;;3.50;99.90;;;;;;5018483;28;20185;-64
2022/01/14 04:19:16;;;;;;;17.73;10.27;;;3.50;99.90;;;;;;5019392;28;20182;-64
2022/01/14 04:21:42;;;;;;;16.07;8.20;;;3.40;99.90;;;;;;5020132;28;20182;-63
2022/01/14 04:24:07;;;;;;;16.17;9.47;;;3.40;99.90;;;;;;5017981;28;20514;-64
2022/01/14 04:26:33;;;;;;;16.90;9.47;;;3.50;99.90;;;;;;5021141;28;20189;-63
2022/01/14 04:28:58;;;;;;;15.73;9.33;;;3.40;99.90;;;;;;5022034;28;20205;-65
2022/01/14 04:31:24;;;;;;;18.87;9.23;;;3.40;99.90;;;;;;5022257;28;20190;-62
2022/01/14 04:33:50;;;;;;;17.00;9.47;;;3.40;99.90;;;;;;5028966;28;20268;-62
2022/01/14 04:36:15;;;;;;;14.67;8.77;;;3.40;99.90;;;;;;5027835;28;20240;-63
2022/01/14 04:38:41;;;;;;;16.00;10.07;;;3.40;99.90;;;;;;5031550;28;20628;-64
2022/01/14 04:41:08;;;;;;;18.57;9.53;;;3.50;99.90;;;;;;5029094;28;20582;-65
2022/01/14 04:43:34;;;;;;;14.87;8.50;;;3.30;99.90;;;;;;5027216;28;20241;-62
2022/01/14 04:48:35;;;;;;;15.43;9.03;;;3.40;99.90;;;;;;5021378;28;20228;-63
2022/01/14 04:51:03;;;;;;;16.00;10.13;;;3.40;99.90;;;;;;5018974;28;20261;-63
2022/01/14 04:53:28;;;;;;;18.30;9.17;;;3.40;99.90;;;;;;5018314;28;20203;-64
2022/01/14 04:55:55;;;;;;;17.30;9.93;;;3.40;99.90;;;;;;5019306;28;20186;-65
2022/01/14 04:58:22;;;;;;;16.53;9.23;;;3.40;99.90;;;;;;5019675;28;20263;-64
2022/01/14 05:00:48;;;;;;;15.83;9.67;;;3.50;99.90;;;;;;5020861;28;20194;-63
2022/01/14 05:03:14;;;;;;;18.53;10.47;;;3.40;99.90;;;;;;5019841;28;20272;-64
2022/01/14 05:05:43;;;;;;;17.63;9.17;;;3.50;99.90;;;;;;5022933;28;20209;-62
2022/01/14 05:08:11;;;;;;;17.33;9.30;;;3.40;99.90;;;;;;5019204;28;20235;-65
2022/01/14 05:11:04;;;;;;;16.47;9.50;;;3.50;99.90;;;;;;5015217;28;20672;-68
2022/01/14 05:13:30;;;;;;;15.40;9.47;;;3.50;99.90;;;;;;5015751;28;20179;-64
2022/01/14 05:15:56;;;;;;;17.83;10.37;;;3.50;99.90;;;;;;5021388;28;20191;-63
2022/01/14 05:18:22;;;;;;;14.63;7.83;;;3.40;99.90;;;;;;5020135;28;20575;-64
2022/01/14 05:20:48;;;;;;;15.90;8.07;;;3.40;99.90;;;;;;5017652;28;20191;-63
2022/01/14 05:23:14;;;;;;;16.20;8.80;;;3.50;99.90;;;;;;5018631;28;20190;-63
2022/01/14 05:25:39;;;;;;;22.73;10.37;;;3.60;99.90;;;;;;5012932;28;20189;-62
2022/01/14 05:28:05;;;;;;;16.47;8.17;;;3.60;99.90;;;;;;5013345;28;20663;-62
2022/01/14 05:30:31;;;;;;;18.13;9.20;;;3.50;99.90;;;;;;5020542;28;20607;-62
2022/01/14 05:32:57;;;;;;;18.07;9.97;;;3.70;99.90;;;;;;5018569;28;20621;-63
2022/01/14 05:35:26;;;;;;;21.37;10.23;;;3.60;99.90;;;;;;5026168;28;20236;-63
2022/01/14 05:37:51;;;;;;;16.23;9.30;;;3.60;99.90;;;;;;5022544;28;20197;-63
2022/01/14 05:40:19;;;;;;;17.23;9.40;;;3.60;99.90;;;;;;5027682;28;20293;-63
2022/01/14 05:42:45;;;;;;;14.87;8.23;;;3.70;99.90;;;;;;5030972;28;20186;-62
2022/01/14 05:45:13;;;;;;;15.37;8.63;;;3.70;99.90;;;;;;5024148;28;20193;-63
2022/01/14 05:47:39;;;;;;;16.23;9.67;;;3.60;99.90;;;;;;5028070;28;20200;-62
2022/01/14 05:50:08;;;;;;;16.47;9.27;;;3.60;99.90;;;;;;5031733;28;20589;-63
2022/01/14 05:52:33;;;;;;;16.07;8.50;;;3.70;99.90;;;;;;5020032;28;20329;-64
2022/01/14 05:54:59;;;;;;;18.53;9.77;;;3.60;99.90;;;;;;5029663;28;20628;-64
2022/01/14 05:57:25;;;;;;;14.00;8.67;;;3.50;99.90;;;;;;5031113;28;20185;-62
2022/01/14 05:59:51;;;;;;;17.53;9.13;;;3.60;99.90;;;;;;5033928;28;20269;-63
2022/01/14 06:02:16;;;;;;;17.60;9.03;;;3.50;99.90;;;;;;5034364;28;20182;-63
2022/01/14 06:04:43;;;;;;;14.57;8.80;;;3.60;99.90;;;;;;5029963;28;20168;-64
2022/01/14 06:07:10;;;;;;;18.50;9.30;;;3.70;99.90;;;;;;5037189;28;20173;-63
2022/01/14 06:09:36;;;;;;;16.03;8.63;;;3.60;99.90;;;;;;5022824;28;20209;-62
2022/01/14 06:12:02;;;;;;;19.83;9.77;;;3.60;99.90;;;;;;5027838;28;20635;-63
2022/01/14 06:14:27;;;;;;;14.77;7.93;;;3.60;99.90;;;;;;5018938;28;20190;-63
2022/01/14 06:16:53;;;;;;;16.03;8.23;;;3.60;99.90;;;;;;5019168;28;20208;-64
2022/01/14 06:19:19;;;;;;;18.20;9.67;;;3.60;99.90;;;;;;5030417;28;20181;-62
2022/01/14 06:21:44;;;;;;;19.80;9.30;;;3.60;99.90;;;;;;5014636;28;20222;-62
2022/01/14 06:24:10;;;;;;;19.70;10.00;;;3.60;99.90;;;;;;5027363;28;20656;-62
2022/01/14 06:26:35;;;;;;;19.67;10.00;;;3.60;99.90;;;;;;5026508;28;20538;-65
2022/01/14 06:29:01;;;;;;;18.50;9.43;;;3.50;99.90;;;;;;5020270;28;20568;-63
2022/01/14 06:31:27;;;;;;;22.63;11.57;;;3.50;99.90;;;;;;5025604;28;20350;-63
2022/01/14 06:33:52;;;;;;;25.17;12.57;;;3.50;99.90;;;;;;5019340;28;20182;-62
2022/01/14 06:36:18;;;;;;;23.20;11.57;;;3.50;99.90;;;;;;5020245;28;20266;-63
2022/01/14 06:38:44;;;;;;;22.93;12.43;;;3.40;99.90;;;;;;5021152;28;20185;-62
2022/01/14 06:41:09;;;;;;;18.33;9.60;;;3.40;99.90;;;;;;5018502;28;20206;-62
2022/01/14 06:43:35;;;;;;;19.77;10.67;;;3.50;99.90;;;;;;5023756;28;20166;-64
2022/01/14 06:46:00;;;;;;;27.03;13.60;;;3.50;99.90;;;;;;5018246;28;20177;-63
2022/01/14 06:48:26;;;;;;;28.97;13.33;;;3.40;99.90;;;;;;5017048;28;20496;-62
2022/01/14 06:50:52;;;;;;;29.37;12.67;;;3.30;99.90;;;;;;5019250;28;20174;-63
2022/01/14 06:53:17;;;;;;;21.73;12.13;;;3.30;99.90;;;;;;5020848;28;20181;-64
2022/01/14 06:55:43;;;;;;;25.83;12.37;;;3.10;99.90;;;;;;5019755;28;20285;-63
2022/01/14 06:58:09;;;;;;;27.37;12.07;;;3.10;99.90;;;;;;5018210;28;20171;-62
2022/01/14 07:00:35;;;;;;;24.97;13.37;;;3.20;99.90;;;;;;5018306;28;20511;-63
2022/01/14 07:03:03;;;;;;;22.50;10.80;;;3.00;99.90;;;;;;5015876;28;20215;-62
2022/01/14 07:05:29;;;;;;;25.67;12.57;;;3.10;99.90;;;;;;5017466;28;20590;-62
2022/01/14 07:07:55;;;;;;;29.25;14.98;;;3.10;99.90;;;;;;5019043;28;20422;-64
2022/01/14 07:10:21;;;;;;;18.07;9.70;;;2.90;99.90;;;;;;5018650;28;20629;-66
2022/01/14 07:12:48;;;;;;;20.03;9.27;;;3.00;99.90;;;;;;5016917;28;20194;-63
2022/01/14 07:15:15;;;;;;;24.87;12.57;;;3.00;99.90;;;;;;5017508;28;20167;-63
2022/01/14 07:17:42;;;;;;;25.77;12.97;;;2.90;99.90;;;;;;5016226;28;20606;-63
2022/01/14 07:20:12;;;;;;;24.47;12.23;;;2.90;99.90;;;;;;5017233;28;20248;-65
2022/01/14 07:22:39;;;;;;;25.83;11.40;;;2.90;99.90;;;;;;5021442;28;20196;-63
2022/01/14 07:25:06;;;;;;;23.90;13.07;;;2.80;99.90;;;;;;5021417;28;20230;-62
2022/01/14 07:27:32;;;;;;;74.03;33.40;;;2.80;99.90;;;;;;5021379;28;20182;-64
2022/01/14 07:29:58;;;;;;;36.10;16.93;;;2.80;99.90;;;;;;5020636;28;20204;-65
2022/01/14 07:32:24;;;;;;;26.63;14.53;;;2.90;99.90;;;;;;5024171;28;20163;-64
2022/01/14 07:34:49;;;;;;;27.40;13.03;;;2.90;99.90;;;;;;5019011;28;20200;-64
2022/01/14 07:37:16;;;;;;;26.53;14.27;;;2.90;99.90;;;;;;5030276;28;20185;-63
2022/01/14 07:39:42;;;;;;;22.87;13.13;;;2.90;99.90;;;;;;5035098;28;20260;-64
2022/01/14 07:42:09;;;;;;;23.00;11.33;;;2.90;99.90;;;;;;5034895;28;20558;-65
2022/01/14 07:44:35;;;;;;;25.23;12.80;;;2.80;99.90;;;;;;5034859;28;20171;-64
2022/01/14 07:47:01;;;;;;;26.33;12.17;;;2.90;99.90;;;;;;5031559;28;20187;-65
2022/01/14 07:49:27;;;;;;;22.73;10.67;;;3.00;99.90;;;;;;5034944;28;20714;-65
2022/01/14 07:51:52;;;;;;;17.23;9.90;;;3.00;99.90;;;;;;5034400;28;20192;-64
2022/01/14 07:54:18;;;;;;;19.33;10.33;;;3.10;99.90;;;;;;5033121;28;20189;-63
2022/01/14 07:56:47;;;;;;;17.57;9.47;;;3.10;99.90;;;;;;5030954;28;20192;-64
2022/01/14 07:59:16;;;;;;;17.63;10.07;;;3.10;99.90;;;;;;5034749;28;20582;-63
2022/01/14 08:01:43;;;;;;;18.10;9.90;;;3.10;99.90;;;;;;5031635;28;20184;-65
2022/01/14 08:04:10;;;;;;;17.83;9.50;;;3.10;99.90;;;;;;5034708;28;20165;-64
2022/01/14 08:06:44;;;;;;;16.33;9.90;;;3.20;99.90;;;;;;5034286;28;20165;-64
2022/01/14 08:09:09;;;;;;;19.07;9.27;;;3.20;99.90;;;;;;5039005;28;20322;-64
2022/01/14 08:11:35;;;;;;;14.33;8.37;;;3.30;99.90;;;;;;5042560;28;20195;-65
2022/01/14 08:14:01;;;;;;;16.03;8.23;;;3.40;99.90;;;;;;5038532;28;20191;-65
2022/01/14 08:16:26;;;;;;;17.83;8.90;;;3.30;99.90;;;;;;5042311;28;20200;-65
2022/01/14 08:18:52;;;;;;;16.00;7.93;;;3.30;99.90;;;;;;5036291;28;20263;-64
2022/01/14 08:21:17;;;;;;;19.63;7.57;;;3.30;99.90;;;;;;5034344;28;20169;-65
2022/01/14 08:23:43;;;;;;;14.53;7.73;;;3.40;99.90;;;;;;5034507;28;20166;-64
2022/01/14 08:26:09;;;;;;;15.63;7.37;;;3.40;99.90;;;;;;5033983;28;20171;-64
2022/01/14 08:28:35;;;;;;;14.00;7.90;;;3.50;99.90;;;;;;5034444;28;20208;-64
2022/01/14 08:31:00;;;;;;;13.13;8.03;;;3.40;99.90;;;;;;5034162;28;20169;-64
2022/01/14 08:33:26;;;;;;;19.07;9.00;;;3.40;99.90;;;;;;5034155;28;20202;-65
2022/01/14 08:35:52;;;;;;;15.90;8.77;;;3.50;99.90;;;;;;5030615;28;20228;-67
2022/01/14 08:38:17;;;;;;;16.27;8.77;;;3.70;99.90;;;;;;5023998;28;20181;-64
2022/01/14 08:40:43;;;;;;;12.17;7.40;;;3.70;99.90;;;;;;5021394;28;20185;-64
2022/01/14 08:43:09;;;;;;;16.63;8.90;;;3.70;99.90;;;;;;5027625;28;20575;-64
2022/01/14 08:45:35;;;;;;;13.10;6.53;;;3.80;99.90;;;;;;5028207;28;20179;-64
2022/01/14 08:48:00;;;;;;;16.83;7.70;;;3.90;99.90;;;;;;5024217;28;20704;-64
2022/01/14 08:50:29;;;;;;;10.90;6.93;;;4.10;99.90;;;;;;5020094;28;20177;-64
2022/01/14 08:52:55;;;;;;;11.73;6.40;;;4.20;99.90;;;;;;5033271;28;20184;-64
2022/01/14 08:55:22;;;;;;;11.70;6.47;;;4.20;99.90;;;;;;5027418;28;20189;-64
2022/01/14 08:57:48;;;;;;;10.83;5.80;;;4.20;99.90;;;;;;5018690;28;20239;-64
2022/01/14 09:00:17;;;;;;;11.13;6.40;;;4.30;99.90;;;;;;5033538;28;20174;-65
2022/01/14 09:02:42;;;;;;;10.17;5.77;;;4.20;99.90;;;;;;5033901;28;20607;-65
2022/01/14 09:05:09;;;;;;;11.80;6.90;;;4.20;99.90;;;;;;5033408;28;20168;-64
2022/01/14 09:07:35;;;;;;;10.77;5.60;;;4.20;99.90;;;;;;5033851;28;20180;-64
2022/01/14 09:10:01;;;;;;;12.47;7.00;;;4.20;99.90;;;;;;5033646;28;20169;-63
2022/01/14 09:12:26;;;;;;;12.30;6.23;;;4.20;99.90;;;;;;5033215;28;20488;-65
2022/01/14 09:14:52;;;;;;;15.23;6.30;;;4.10;99.90;;;;;;5030218;28;20188;-64
2022/01/14 09:17:18;;;;;;;15.67;7.40;;;4.20;99.90;;;;;;5032824;28;20176;-65
2022/01/14 09:19:44;;;;;;;13.57;8.13;;;4.10;99.90;;;;;;5023004;28;20181;-64
2022/01/14 09:22:15;;;;;;;12.93;6.63;;;4.10;99.90;;;;;;5013896;28;20173;-64
2022/01/14 09:24:41;;;;;;;15.93;8.27;;;4.00;99.90;;;;;;5015228;28;20669;-64
2022/01/14 09:27:07;;;;;;;20.33;9.43;;;4.00;99.90;;;;;;5019665;28;20214;-63
2022/01/14 09:29:33;;;;;;;20.20;9.60;;;3.90;99.90;;;;;;5023644;28;20197;-64
2022/01/14 09:31:59;;;;;;;18.27;9.60;;;3.90;99.90;;;;;;5016489;28;20224;-64
2022/01/14 09:34:24;;;;;;;19.70;10.10;;;4.00;99.90;;;;;;5012600;28;20316;-64
2022/01/14 09:36:50;;;;;;;18.60;9.90;;;3.90;99.90;;;;;;5023304;28;20270;-64
2022/01/14 09:39:16;;;;;;;20.43;10.60;;;3.90;99.90;;;;;;5039305;28;20173;-65
2022/01/14 09:41:41;;;;;;;20.53;11.10;;;3.80;99.90;;;;;;5039906;28;20168;-63
2022/01/14 09:44:07;;;;;;;23.93;9.83;;;3.80;99.90;;;;;;5040544;28;20743;-63
2022/01/14 09:46:33;;;;;;;25.53;10.80;;;3.80;99.90;;;;;;5037477;28;20180;-66
2022/01/14 09:48:59;;;;;;;22.00;11.47;;;3.90;99.90;;;;;;5037874;28;20207;-66
2022/01/14 09:51:25;;;;;;;27.50;12.00;;;4.00;99.90;;;;;;5029403;28;20170;-65
2022/01/14 09:53:51;;;;;;;28.70;13.37;;;3.90;99.90;;;;;;5018353;28;20216;-64
2022/01/14 09:56:18;;;;;;;28.30;12.73;;;3.90;99.90;;;;;;5014922;28;20176;-64
2022/01/14 09:58:48;;;;;;;25.23;12.53;;;3.90;99.90;;;;;;5015273;28;20661;-65
2022/01/14 10:01:18;;;;;;;19.63;10.10;;;3.80;99.90;;;;;;5017581;28;20360;-64
2022/01/14 10:03:56;;;;;;;25.83;10.30;;;3.80;99.90;;;;;;5019318;28;20174;-66
2022/01/14 10:06:42;;;;;;;20.00;10.43;;;3.80;99.90;;;;;;5016102;28;20244;-65
2022/01/14 10:09:36;;;;;;;22.23;11.27;;;3.70;99.90;;;;;;5015692;28;20206;-64
2022/01/14 10:12:07;;;;;;;20.33;10.40;;;3.70;99.90;;;;;;5018917;28;20188;-65
2022/01/14 10:14:35;;;;;;;25.70;11.50;;;3.70;99.90;;;;;;5022614;28;20187;-64
2022/01/14 10:17:03;;;;;;;35.63;15.97;;;3.60;99.90;;;;;;5021125;28;20270;-66
2022/01/14 10:19:33;;;;;;;29.63;12.87;;;3.70;99.90;;;;;;5021903;28;20196;-66
2022/01/14 10:21:59;;;;;;;20.13;10.93;;;3.70;99.90;;;;;;5020803;28;20188;-68
2022/01/14 10:24:30;;;;;;;28.60;14.18;;;3.80;99.90;;;;;;5016950;28;20433;-64
2022/01/14 10:26:58;;;;;;;22.90;11.73;;;3.70;99.90;;;;;;5011443;28;20194;-65
2022/01/14 10:29:30;;;;;;;16.07;8.47;;;3.70;99.90;;;;;;5019046;28;20204;-64
2022/01/14 10:31:56;;;;;;;19.97;10.60;;;3.70;99.90;;;;;;5018077;28;20794;-64
2022/01/14 10:34:21;;;;;;;22.97;11.77;;;3.60;99.90;;;;;;5020615;28;20576;-68
2022/01/14 10:36:50;;;;;;;22.93;11.37;;;3.60;99.90;;;;;;5017915;28;20251;-64
2022/01/14 10:39:19;;;;;;;22.67;12.10;;;3.60;99.90;;;;;;5018035;28;20594;-65
2022/01/14 10:41:44;;;;;;;24.30;12.60;;;3.70;99.90;;;;;;5021022;28;20184;-65
2022/01/14 10:44:32;;;;;;;22.37;11.83;;;3.70;99.90;;;;;;5024169;28;20646;-63
2022/01/14 10:47:12;;;;;;;24.50;12.80;;;3.60;99.90;;;;;;5014490;28;20192;-68
2022/01/14 10:49:38;;;;;;;21.70;11.33;;;3.60;99.90;;;;;;5017545;28;20526;-64
2022/01/14 10:52:16;;;;;;;23.17;12.47;;;3.70;99.90;;;;;;5020277;28;20193;-65
2022/01/14 10:54:47;;;;;;;27.27;14.00;;;3.70;99.90;;;;;;5020313;28;20197;-72
2022/01/14 10:57:25;;;;;;;25.60;12.70;;;3.60;99.90;;;;;;5015821;28;20196;-66
2022/01/14 10:59:55;;;;;;;22.17;12.30;;;3.60;99.90;;;;;;5019035;28;20182;-66
2022/01/14 11:02:39;;;;;;;32.90;13.30;;;3.60;99.90;;;;;;5018662;28;20725;-65
2022/01/14 11:05:07;;;;;;;24.97;12.47;;;3.70;99.90;;;;;;5017469;28;20194;-63
2022/01/14 11:07:33;;;;;;;29.47;14.70;;;3.70;99.90;;;;;;5021728;28;20185;-63
2022/01/14 11:10:00;;;;;;;24.20;12.17;;;3.80;99.90;;;;;;5021950;28;20287;-67
2022/01/14 11:12:26;;;;;;;24.47;12.70;;;3.70;99.90;;;;;;5016000;28;20317;-65
2022/01/14 11:14:52;;;;;;;29.70;14.07;;;3.70;99.90;;;;;;5019257;28;20629;-67
2022/01/14 11:17:18;;;;;;;22.50;12.67;;;3.80;99.90;;;;;;5022720;28;20294;-65
2022/01/14 11:19:46;;;;;;;26.50;14.00;;;3.80;99.90;;;;;;5019552;28;20188;-64
2022/01/14 11:24:56;;;;;;;24.10;11.20;;;3.80;99.90;;;;;;5018124;28;20239;-63
2022/01/14 11:27:24;;;;;;;23.00;11.90;;;3.90;99.90;;;;;;5018731;28;20274;-66
2022/01/14 11:29:57;;;;;;;25.87;12.60;;;4.00;99.90;;;;;;5017225;28;20238;-63
2022/01/14 11:32:25;;;;;;;20.33;10.17;;;4.00;99.90;;;;;;5018156;28;20231;-67
2022/01/14 11:34:51;;;;;;;20.37;11.13;;;4.00;99.90;;;;;;5019847;28;20648;-64
2022/01/14 11:37:29;;;;;;;23.50;11.93;;;3.80;99.90;;;;;;5020663;28;20185;-65
2022/01/14 11:40:16;;;;;;;19.40;9.50;;;3.90;99.90;;;;;;5016316;28;20197;-65
2022/01/14 11:42:47;;;;;;;23.30;11.20;;;4.00;99.90;;;;;;5017378;28;20204;-64
2022/01/14 11:45:34;;;;;;;27.37;12.03;;;4.00;99.90;;;;;;5015672;28;20197;-63
2022/01/14 11:48:01;;;;;;;31.67;13.13;;;4.10;99.90;;;;;;5014602;28;20220;-64
2022/01/14 11:50:30;;;;;;;22.17;12.03;;;4.00;99.90;;;;;;5023722;28;20173;-65
2022/01/14 11:52:59;;;;;;;29.63;12.97;;;4.10;99.90;;;;;;5017143;28;20741;-63
2022/01/14 11:55:29;;;;;;;22.60;10.27;;;4.10;99.90;;;;;;5021423;28;20184;-67
2022/01/14 11:58:03;;;;;;;25.23;13.07;;;4.20;99.90;;;;;;5016749;28;20195;-64
2022/01/14 12:00:30;;;;;;;25.93;12.63;;;4.20;99.90;;;;;;5017701;28;20209;-71
2022/01/14 12:03:11;;;;;;;29.63;14.00;;;4.10;99.90;;;;;;5023549;28;20181;-64
2022/01/14 12:05:58;;;;;;;28.80;14.67;;;4.10;99.90;;;;;;5017742;28;20203;-65
2022/01/14 12:08:30;;;;;;;30.13;14.00;;;4.00;99.90;;;;;;5021616;28;20209;-63
2022/01/14 12:11:05;;;;;;;26.60;13.07;;;4.10;99.90;;;;;;5021069;28;20314;-64
2022/01/14 12:13:53;;;;;;;36.23;14.17;;;4.20;99.90;;;;;;5018831;28;20663;-65
2022/01/14 12:16:35;;;;;;;30.23;13.87;;;4.20;99.90;;;;;;5022474;28;20173;-64
2022/01/14 12:19:03;;;;;;;24.27;12.47;;;4.20;99.90;;;;;;5018653;28;20192;-63
2022/01/14 12:21:41;;;;;;;18.03;9.20;;;4.20;99.90;;;;;;5019724;28;20212;-65
2022/01/14 12:24:18;;;;;;;24.07;12.37;;;4.20;99.90;;;;;;5019344;28;20186;-65
2022/01/14 12:27:15;;;;;;;24.73;12.70;;;4.30;99.90;;;;;;5017597;28;20212;-64
2022/01/14 12:29:45;;;;;;;26.83;12.60;;;4.30;99.90;;;;;;5022456;28;20215;-64
2022/01/14 12:32:13;;;;;;;24.47;13.03;;;4.40;99.90;;;;;;5018312;28;20191;-64
2022/01/14 12:34:48;;;;;;;20.20;9.00;;;4.40;99.90;;;;;;5016048;28;20175;-66
2022/01/14 12:37:26;;;;;;;26.60;13.63;;;4.40;99.90;;;;;;5019668;28;20189;-64
2022/01/14 12:39:54;;;;;;;23.73;12.50;;;4.30;99.90;;;;;;5016038;28;20198;-64
2022/01/14 12:42:21;;;;;;;20.40;8.90;;;4.40;99.90;;;;;;5017619;28;20180;-64
2022/01/14 12:44:50;;;;;;;16.13;9.10;;;4.40;99.90;;;;;;5015286;28;20188;-64
2022/01/14 12:47:31;;;;;;;18.33;9.13;;;4.40;99.90;;;;;;5020807;28;20178;-63
2022/01/14 12:50:05;;;;;;;22.80;11.93;;;4.40;99.90;;;;;;5019588;28;20324;-64
2022/01/14 12:52:38;;;;;;;20.07;9.37;;;4.40;99.90;;;;;;5020566;28;20180;-64
2022/01/14 12:55:06;;;;;;;22.53;9.67;;;4.50;99.90;;;;;;5019672;28;20511;-65
2022/01/14 12:57:32;;;;;;;18.20;9.50;;;4.50;99.90;;;;;;5009763;28;20198;-64
2022/01/14 12:59:57;;;;;;;15.47;8.73;;;4.50;99.90;;;;;;5022823;28;20189;-69
2022/01/14 13:02:25;;;;;;;20.07;11.97;;;4.40;99.90;;;;;;5017813;28;20185;-64
2022/01/14 13:05:15;;;;;;;30.83;13.27;;;4.40;99.90;;;;;;5020472;28;20176;-70
2022/01/14 13:07:42;;;;;;;26.10;12.33;;;4.40;99.90;;;;;;5020422;28;20311;-64
2022/01/14 13:10:11;;;;;;;19.83;9.50;;;4.40;99.90;;;;;;5021653;28;20600;-65
2022/01/14 13:12:42;;;;;;;25.40;12.10;;;4.40;99.90;;;;;;5018741;28;20519;-65
2022/01/14 13:15:19;;;;;;;25.47;12.77;;;4.50;99.90;;;;;;5025691;28;20177;-65
2022/01/14 13:17:57;;;;;;;20.60;9.80;;;4.50;99.90;;;;;;5021060;28;20649;-65